sensor_id;sensor_type;location;lat;lon;timestamp;P1;durP1;ratioP1;P2;durP2;ratioP2
21758;SDS011;11041;50.854;20.580;2022-10-31T00:01:15;61.17;;;40.30;;
21758;SDS011;11041;50.854;20.580;2022-10-31T00:03:46;59.13;;;38.92;;
21758;SDS011;11041;50.854;20.580;2022-10-31T00:06:14;63.30;;;39.95;;
21758;SDS011;11041;50.854;20.580;2022-10-31T00:08:44;62.53;;;38.95;;
21758;SDS011;11041;50.854;20.580;2022-10-31T00:11:12;56.85;;;37.58;;
21758;SDS011;11041;50.854;20.580;2022-10-31T00:13:39;59.33;;;38.10;;
21758;SDS011;11041;50.854;20.580;2022-10-31T00:16:12;46.15;;;33.85;;
21758;SDS011;11041;50.854;20.580;2022-10-31T00:18:43;48.45;;;34.90;;
21758;SDS011;11041;50.854;20.580;2022-10-31T00:21:15;60.05;;;38.53;;
21758;SDS011;11041;50.854;20.580;2022-10-31T00:23:41;58.88;;;38.58;;
21758;SDS011;11041;50.854;20.580;2022-10-31T00:26:08;53.03;;;36.35;;
21758;SDS011;11041;50.854;20.580;2022-10-31T00:28:34;59.80;;;39.08;;
21758;SDS011;11041;50.854;20.580;2022-10-31T00:31:02;56.53;;;36.30;;
21758;SDS011;11041;50.854;20.580;2022-10-31T00:33:35;55.78;;;35.35;;
21758;SDS011;11041;50.854;20.580;2022-10-31T00:36:04;80.00;;;40.53;;
21758;SDS011;11041;50.854;20.580;2022-10-31T00:38:32;104.80;;;41.05;;
21758;SDS011;11041;50.854;20.580;2022-10-31T00:40:59;102.10;;;39.63;;
21758;SDS011;11041;50.854;20.580;2022-10-31T00:43:25;141.30;;;43.42;;
21758;SDS011;11041;50.854;20.580;2022-10-31T00:45:52;110.90;;;42.83;;
21758;SDS011;11041;50.854;20.580;2022-10-31T00:48:18;119.18;;;44.65;;
21758;SDS011;11041;50.854;20.580;2022-10-31T00:50:45;106.20;;;44.00;;
21758;SDS011;11041;50.854;20.580;2022-10-31T00:53:11;106.78;;;45.95;;
21758;SDS011;11041;50.854;20.580;2022-10-31T00:55:38;88.53;;;42.67;;
21758;SDS011;11041;50.854;20.580;2022-10-31T00:58:04;82.03;;;43.05;;
21758;SDS011;11041;50.854;20.580;2022-10-31T01:00:30;74.30;;;41.45;;
21758;SDS011;11041;50.854;20.580;2022-10-31T01:02:56;90.82;;;49.65;;
21758;SDS011;11041;50.854;20.580;2022-10-31T01:05:23;111.43;;;54.42;;
21758;SDS011;11041;50.854;20.580;2022-10-31T01:07:49;126.25;;;54.05;;
21758;SDS011;11041;50.854;20.580;2022-10-31T01:10:16;148.35;;;55.97;;
21758;SDS011;11041;50.854;20.580;2022-10-31T01:12:44;137.02;;;57.55;;
21758;SDS011;11041;50.854;20.580;2022-10-31T01:15:14;111.80;;;54.45;;
21758;SDS011;11041;50.854;20.580;2022-10-31T01:17:44;154.75;;;56.60;;
21758;SDS011;11041;50.854;20.580;2022-10-31T01:20:11;135.68;;;63.58;;
21758;SDS011;11041;50.854;20.580;2022-10-31T01:22:40;158.20;;;57.92;;
21758;SDS011;11041;50.854;20.580;2022-10-31T01:25:08;152.10;;;58.30;;
21758;SDS011;11041;50.854;20.580;2022-10-31T01:27:35;124.82;;;54.95;;
21758;SDS011;11041;50.854;20.580;2022-10-31T01:30:02;122.70;;;54.70;;
21758;SDS011;11041;50.854;20.580;2022-10-31T01:32:30;112.03;;;53.60;;
21758;SDS011;11041;50.854;20.580;2022-10-31T01:34:56;135.25;;;57.10;;
21758;SDS011;11041;50.854;20.580;2022-10-31T01:37:22;98.28;;;53.63;;
21758;SDS011;11041;50.854;20.580;2022-10-31T01:39:49;103.15;;;48.70;;
21758;SDS011;11041;50.854;20.580;2022-10-31T01:42:18;97.80;;;49.83;;
21758;SDS011;11041;50.854;20.580;2022-10-31T01:44:49;74.70;;;46.83;;
21758;SDS011;11041;50.854;20.580;2022-10-31T01:47:34;97.07;;;45.15;;
21758;SDS011;11041;50.854;20.580;2022-10-31T01:50:34;91.05;;;47.85;;
21758;SDS011;11041;50.854;20.580;2022-10-31T01:53:04;91.35;;;48.33;;
21758;SDS011;11041;50.854;20.580;2022-10-31T01:55:35;119.03;;;53.95;;
21758;SDS011;11041;50.854;20.580;2022-10-31T01:58:13;131.60;;;56.97;;
21758;SDS011;11041;50.854;20.580;2022-10-31T02:00:46;109.15;;;53.15;;
21758;SDS011;11041;50.854;20.580;2022-10-31T02:03:18;104.28;;;54.50;;
21758;SDS011;11041;50.854;20.580;2022-10-31T02:05:48;110.03;;;52.42;;
21758;SDS011;11041;50.854;20.580;2022-10-31T02:08:29;108.53;;;54.70;;
21758;SDS011;11041;50.854;20.580;2022-10-31T02:10:59;114.15;;;53.70;;
21758;SDS011;11041;50.854;20.580;2022-10-31T02:13:27;84.65;;;51.42;;
21758;SDS011;11041;50.854;20.580;2022-10-31T02:15:56;109.57;;;49.60;;
21758;SDS011;11041;50.854;20.580;2022-10-31T02:18:24;89.65;;;49.58;;
21758;SDS011;11041;50.854;20.580;2022-10-31T02:35:20;66.90;;;34.50;;
21758;SDS011;11041;50.854;20.580;2022-10-31T02:37:57;91.28;;;40.00;;
21758;SDS011;11041;50.854;20.580;2022-10-31T02:43:27;106.78;;;42.20;;
21758;SDS011;11041;50.854;20.580;2022-10-31T02:46:27;99.45;;;42.55;;
21758;SDS011;11041;50.854;20.580;2022-10-31T02:49:08;109.70;;;37.92;;
21758;SDS011;11041;50.854;20.580;2022-10-31T02:51:50;102.63;;;40.20;;
21758;SDS011;11041;50.854;20.580;2022-10-31T02:54:17;160.60;;;44.38;;
21758;SDS011;11041;50.854;20.580;2022-10-31T02:56:51;135.98;;;44.08;;
21758;SDS011;11041;50.854;20.580;2022-10-31T02:59:32;133.15;;;44.05;;
21758;SDS011;11041;50.854;20.580;2022-10-31T03:05:21;146.35;;;46.83;;
21758;SDS011;11041;50.854;20.580;2022-10-31T03:10:56;109.18;;;43.58;;
21758;SDS011;11041;50.854;20.580;2022-10-31T03:16:18;97.35;;;44.63;;
21758;SDS011;11041;50.854;20.580;2022-10-31T03:19:09;79.32;;;41.28;;
21758;SDS011;11041;50.854;20.580;2022-10-31T03:24:36;70.72;;;39.50;;
21758;SDS011;11041;50.854;20.580;2022-10-31T03:27:09;75.63;;;39.05;;
21758;SDS011;11041;50.854;20.580;2022-10-31T03:29:41;76.93;;;38.72;;
21758;SDS011;11041;50.854;20.580;2022-10-31T03:32:16;66.38;;;36.60;;
21758;SDS011;11041;50.854;20.580;2022-10-31T03:35:12;58.92;;;35.83;;
21758;SDS011;11041;50.854;20.580;2022-10-31T03:37:43;72.40;;;37.75;;
21758;SDS011;11041;50.854;20.580;2022-10-31T03:40:12;93.40;;;35.47;;
21758;SDS011;11041;50.854;20.580;2022-10-31T03:42:44;90.75;;;36.75;;
21758;SDS011;11041;50.854;20.580;2022-10-31T03:45:23;98.80;;;36.55;;
21758;SDS011;11041;50.854;20.580;2022-10-31T03:47:54;107.35;;;36.95;;
21758;SDS011;11041;50.854;20.580;2022-10-31T03:50:25;85.32;;;37.10;;
21758;SDS011;11041;50.854;20.580;2022-10-31T03:53:05;107.30;;;38.40;;
21758;SDS011;11041;50.854;20.580;2022-10-31T03:56:11;133.88;;;38.85;;
21758;SDS011;11041;50.854;20.580;2022-10-31T03:59:12;89.95;;;37.83;;
21758;SDS011;11041;50.854;20.580;2022-10-31T04:01:59;107.70;;;39.22;;
21758;SDS011;11041;50.854;20.580;2022-10-31T04:04:32;99.00;;;39.05;;
21758;SDS011;11041;50.854;20.580;2022-10-31T04:07:01;120.18;;;40.92;;
21758;SDS011;11041;50.854;20.580;2022-10-31T04:09:31;119.47;;;44.10;;
21758;SDS011;11041;50.854;20.580;2022-10-31T04:12:02;154.40;;;46.95;;
21758;SDS011;11041;50.854;20.580;2022-10-31T04:14:35;141.02;;;46.47;;
21758;SDS011;11041;50.854;20.580;2022-10-31T04:17:09;127.03;;;43.97;;
21758;SDS011;11041;50.854;20.580;2022-10-31T04:19:40;125.05;;;41.80;;
21758;SDS011;11041;50.854;20.580;2022-10-31T04:22:06;112.70;;;43.42;;
21758;SDS011;11041;50.854;20.580;2022-10-31T04:24:33;110.32;;;41.13;;
21758;SDS011;11041;50.854;20.580;2022-10-31T04:26:59;102.90;;;40.30;;
21758;SDS011;11041;50.854;20.580;2022-10-31T04:29:26;107.90;;;40.70;;
21758;SDS011;11041;50.854;20.580;2022-10-31T04:31:52;81.90;;;38.90;;
21758;SDS011;11041;50.854;20.580;2022-10-31T04:34:19;82.60;;;38.97;;
21758;SDS011;11041;50.854;20.580;2022-10-31T04:36:45;76.50;;;32.88;;
21758;SDS011;11041;50.854;20.580;2022-10-31T04:39:12;66.03;;;33.15;;
21758;SDS011;11041;50.854;20.580;2022-10-31T04:41:38;68.18;;;35.70;;
21758;SDS011;11041;50.854;20.580;2022-10-31T04:44:05;72.88;;;32.22;;
21758;SDS011;11041;50.854;20.580;2022-10-31T04:46:31;74.80;;;33.38;;
21758;SDS011;11041;50.854;20.580;2022-10-31T04:48:58;76.75;;;33.65;;
21758;SDS011;11041;50.854;20.580;2022-10-31T04:51:24;95.18;;;32.53;;
21758;SDS011;11041;50.854;20.580;2022-10-31T04:53:51;71.13;;;33.00;;
21758;SDS011;11041;50.854;20.580;2022-10-31T04:56:17;108.07;;;34.03;;
21758;SDS011;11041;50.854;20.580;2022-10-31T04:58:44;99.15;;;35.50;;
21758;SDS011;11041;50.854;20.580;2022-10-31T05:01:12;105.82;;;33.58;;
21758;SDS011;11041;50.854;20.580;2022-10-31T05:03:39;142.77;;;33.72;;
21758;SDS011;11041;50.854;20.580;2022-10-31T05:06:06;134.07;;;36.20;;
21758;SDS011;11041;50.854;20.580;2022-10-31T05:08:33;114.72;;;36.35;;
21758;SDS011;11041;50.854;20.580;2022-10-31T05:11:02;117.68;;;35.97;;
21758;SDS011;11041;50.854;20.580;2022-10-31T05:13:30;173.63;;;35.15;;
21758;SDS011;11041;50.854;20.580;2022-10-31T05:15:57;99.55;;;33.95;;
21758;SDS011;11041;50.854;20.580;2022-10-31T05:18:23;90.05;;;32.40;;
21758;SDS011;11041;50.854;20.580;2022-10-31T05:20:50;75.97;;;31.52;;
21758;SDS011;11041;50.854;20.580;2022-10-31T05:23:16;66.30;;;29.90;;
21758;SDS011;11041;50.854;20.580;2022-10-31T05:25:43;60.78;;;29.33;;
21758;SDS011;11041;50.854;20.580;2022-10-31T05:28:09;61.58;;;29.85;;
21758;SDS011;11041;50.854;20.580;2022-10-31T05:30:36;52.65;;;28.15;;
21758;SDS011;11041;50.854;20.580;2022-10-31T05:33:02;83.55;;;31.35;;
21758;SDS011;11041;50.854;20.580;2022-10-31T05:35:30;51.08;;;27.52;;
21758;SDS011;11041;50.854;20.580;2022-10-31T05:37:58;63.75;;;31.55;;
21758;SDS011;11041;50.854;20.580;2022-10-31T05:40:26;59.33;;;31.00;;
21758;SDS011;11041;50.854;20.580;2022-10-31T05:42:53;71.25;;;28.05;;
21758;SDS011;11041;50.854;20.580;2022-10-31T05:45:24;83.43;;;28.92;;
21758;SDS011;11041;50.854;20.580;2022-10-31T05:47:57;83.45;;;29.23;;
21758;SDS011;11041;50.854;20.580;2022-10-31T05:50:28;95.53;;;30.27;;
21758;SDS011;11041;50.854;20.580;2022-10-31T05:52:57;100.13;;;30.33;;
21758;SDS011;11041;50.854;20.580;2022-10-31T05:55:27;81.65;;;31.55;;
21758;SDS011;11041;50.854;20.580;2022-10-31T05:57:54;100.95;;;31.55;;
21758;SDS011;11041;50.854;20.580;2022-10-31T06:00:22;95.28;;;34.15;;
21758;SDS011;11041;50.854;20.580;2022-10-31T06:02:56;102.95;;;34.55;;
21758;SDS011;11041;50.854;20.580;2022-10-31T06:05:29;90.35;;;34.80;;
21758;SDS011;11041;50.854;20.580;2022-10-31T06:07:56;82.97;;;31.27;;
21758;SDS011;11041;50.854;20.580;2022-10-31T06:10:23;85.93;;;32.40;;
21758;SDS011;11041;50.854;20.580;2022-10-31T06:12:50;69.85;;;30.02;;
21758;SDS011;11041;50.854;20.580;2022-10-31T06:15:17;64.75;;;29.92;;
21758;SDS011;11041;50.854;20.580;2022-10-31T06:17:44;64.68;;;28.73;;
21758;SDS011;11041;50.854;20.580;2022-10-31T06:20:11;62.65;;;29.75;;
21758;SDS011;11041;50.854;20.580;2022-10-31T06:22:37;66.88;;;27.52;;
21758;SDS011;11041;50.854;20.580;2022-10-31T06:25:04;93.20;;;27.67;;
21758;SDS011;11041;50.854;20.580;2022-10-31T06:27:30;64.97;;;27.63;;
21758;SDS011;11041;50.854;20.580;2022-10-31T06:29:57;72.55;;;28.08;;
21758;SDS011;11041;50.854;20.580;2022-10-31T06:32:23;68.70;;;31.55;;
21758;SDS011;11041;50.854;20.580;2022-10-31T06:34:50;64.20;;;27.65;;
21758;SDS011;11041;50.854;20.580;2022-10-31T06:37:17;51.35;;;26.25;;
21758;SDS011;11041;50.854;20.580;2022-10-31T06:39:43;51.50;;;25.30;;
21758;SDS011;11041;50.854;20.580;2022-10-31T06:42:10;46.72;;;24.35;;
21758;SDS011;11041;50.854;20.580;2022-10-31T06:44:37;50.95;;;26.15;;
21758;SDS011;11041;50.854;20.580;2022-10-31T06:47:03;37.25;;;22.65;;
21758;SDS011;11041;50.854;20.580;2022-10-31T06:49:33;39.30;;;24.92;;
21758;SDS011;11041;50.854;20.580;2022-10-31T06:51:59;44.80;;;23.23;;
21758;SDS011;11041;50.854;20.580;2022-10-31T06:54:26;46.63;;;23.92;;
21758;SDS011;11041;50.854;20.580;2022-10-31T06:56:52;40.47;;;23.15;;
21758;SDS011;11041;50.854;20.580;2022-10-31T06:59:19;39.67;;;22.70;;
21758;SDS011;11041;50.854;20.580;2022-10-31T07:01:45;46.42;;;24.60;;
21758;SDS011;11041;50.854;20.580;2022-10-31T07:04:12;42.78;;;23.25;;
21758;SDS011;11041;50.854;20.580;2022-10-31T07:06:39;43.70;;;23.58;;
21758;SDS011;11041;50.854;20.580;2022-10-31T07:09:05;46.00;;;25.23;;
21758;SDS011;11041;50.854;20.580;2022-10-31T07:11:31;46.38;;;25.42;;
21758;SDS011;11041;50.854;20.580;2022-10-31T07:13:59;59.20;;;32.92;;
21758;SDS011;11041;50.854;20.580;2022-10-31T07:16:25;42.92;;;26.15;;
21758;SDS011;11041;50.854;20.580;2022-10-31T07:18:52;39.95;;;25.50;;
21758;SDS011;11041;50.854;20.580;2022-10-31T07:21:19;47.92;;;28.80;;
21758;SDS011;11041;50.854;20.580;2022-10-31T07:23:49;48.35;;;29.80;;
21758;SDS011;11041;50.854;20.580;2022-10-31T07:26:15;58.42;;;32.60;;
21758;SDS011;11041;50.854;20.580;2022-10-31T07:28:42;67.53;;;40.15;;
21758;SDS011;11041;50.854;20.580;2022-10-31T07:31:09;62.15;;;37.13;;
21758;SDS011;11041;50.854;20.580;2022-10-31T07:33:35;69.93;;;38.90;;
21758;SDS011;11041;50.854;20.580;2022-10-31T07:36:02;61.72;;;37.42;;
21758;SDS011;11041;50.854;20.580;2022-10-31T07:38:28;60.30;;;35.63;;
21758;SDS011;11041;50.854;20.580;2022-10-31T07:40:55;55.10;;;35.63;;
21758;SDS011;11041;50.854;20.580;2022-10-31T07:43:22;55.85;;;35.10;;
21758;SDS011;11041;50.854;20.580;2022-10-31T07:45:51;57.33;;;34.47;;
21758;SDS011;11041;50.854;20.580;2022-10-31T07:48:19;57.10;;;34.95;;
21758;SDS011;11041;50.854;20.580;2022-10-31T07:50:46;52.60;;;33.67;;
21758;SDS011;11041;50.854;20.580;2022-10-31T07:53:13;54.58;;;35.17;;
21758;SDS011;11041;50.854;20.580;2022-10-31T07:55:41;56.88;;;34.95;;
21758;SDS011;11041;50.854;20.580;2022-10-31T07:58:09;53.20;;;34.28;;
21758;SDS011;11041;50.854;20.580;2022-10-31T08:00:40;53.00;;;35.15;;
21758;SDS011;11041;50.854;20.580;2022-10-31T08:03:11;48.28;;;32.10;;
21758;SDS011;11041;50.854;20.580;2022-10-31T08:05:41;43.15;;;29.13;;
21758;SDS011;11041;50.854;20.580;2022-10-31T08:08:10;45.95;;;29.95;;
21758;SDS011;11041;50.854;20.580;2022-10-31T08:10:37;40.83;;;28.27;;
21758;SDS011;11041;50.854;20.580;2022-10-31T08:13:07;43.70;;;28.08;;
21758;SDS011;11041;50.854;20.580;2022-10-31T08:15:36;39.65;;;28.23;;
21758;SDS011;11041;50.854;20.580;2022-10-31T08:18:06;42.92;;;29.70;;
21758;SDS011;11041;50.854;20.580;2022-10-31T08:20:39;35.20;;;25.13;;
21758;SDS011;11041;50.854;20.580;2022-10-31T08:23:08;35.10;;;24.85;;
21758;SDS011;11041;50.854;20.580;2022-10-31T08:25:37;38.38;;;25.05;;
21758;SDS011;11041;50.854;20.580;2022-10-31T08:28:04;33.90;;;23.98;;
21758;SDS011;11041;50.854;20.580;2022-10-31T08:30:33;37.53;;;24.52;;
21758;SDS011;11041;50.854;20.580;2022-10-31T08:35:39;35.28;;;23.58;;
21758;SDS011;11041;50.854;20.580;2022-10-31T08:38:07;33.67;;;24.10;;
21758;SDS011;11041;50.854;20.580;2022-10-31T08:40:36;34.50;;;23.83;;
21758;SDS011;11041;50.854;20.580;2022-10-31T08:43:12;29.63;;;22.67;;
21758;SDS011;11041;50.854;20.580;2022-10-31T08:45:41;31.58;;;24.38;;
21758;SDS011;11041;50.854;20.580;2022-10-31T08:48:11;40.33;;;27.73;;
21758;SDS011;11041;50.854;20.580;2022-10-31T08:50:40;40.70;;;29.13;;
21758;SDS011;11041;50.854;20.580;2022-10-31T08:53:27;48.70;;;32.60;;
21758;SDS011;11041;50.854;20.580;2022-10-31T08:55:54;49.95;;;30.90;;
21758;SDS011;11041;50.854;20.580;2022-10-31T08:58:22;56.70;;;35.03;;
21758;SDS011;11041;50.854;20.580;2022-10-31T09:00:52;49.35;;;33.35;;
21758;SDS011;11041;50.854;20.580;2022-10-31T09:03:26;49.20;;;34.45;;
21758;SDS011;11041;50.854;20.580;2022-10-31T09:05:59;49.97;;;33.22;;
21758;SDS011;11041;50.854;20.580;2022-10-31T09:08:29;48.40;;;31.40;;
21758;SDS011;11041;50.854;20.580;2022-10-31T09:10:57;44.03;;;33.67;;
21758;SDS011;11041;50.854;20.580;2022-10-31T09:13:24;49.03;;;33.20;;
21758;SDS011;11041;50.854;20.580;2022-10-31T09:15:52;49.58;;;33.80;;
21758;SDS011;11041;50.854;20.580;2022-10-31T09:18:20;53.30;;;32.92;;
21758;SDS011;11041;50.854;20.580;2022-10-31T09:20:48;52.67;;;32.58;;
21758;SDS011;11041;50.854;20.580;2022-10-31T09:23:17;53.72;;;34.45;;
21758;SDS011;11041;50.854;20.580;2022-10-31T09:25:49;50.45;;;34.15;;
21758;SDS011;11041;50.854;20.580;2022-10-31T09:28:19;52.38;;;32.72;;
21758;SDS011;11041;50.854;20.580;2022-10-31T09:30:49;40.85;;;30.38;;
21758;SDS011;11041;50.854;20.580;2022-10-31T09:33:17;46.63;;;31.63;;
21758;SDS011;11041;50.854;20.580;2022-10-31T09:35:44;48.97;;;31.20;;
21758;SDS011;11041;50.854;20.580;2022-10-31T09:38:12;45.92;;;31.13;;
21758;SDS011;11041;50.854;20.580;2022-10-31T09:43:37;41.03;;;30.08;;
21758;SDS011;11041;50.854;20.580;2022-10-31T09:46:29;43.72;;;30.15;;
21758;SDS011;11041;50.854;20.580;2022-10-31T09:55:05;48.17;;;27.55;;
21758;SDS011;11041;50.854;20.580;2022-10-31T09:58:09;41.85;;;26.50;;
21758;SDS011;11041;50.854;20.580;2022-10-31T10:00:43;40.72;;;26.33;;
21758;SDS011;11041;50.854;20.580;2022-10-31T10:06:06;35.17;;;24.25;;
21758;SDS011;11041;50.854;20.580;2022-10-31T10:08:46;35.13;;;24.13;;
21758;SDS011;11041;50.854;20.580;2022-10-31T10:14:24;43.00;;;24.48;;
21758;SDS011;11041;50.854;20.580;2022-10-31T10:19:48;35.33;;;21.95;;
21758;SDS011;11041;50.854;20.580;2022-10-31T10:22:43;33.03;;;23.02;;
21758;SDS011;11041;50.854;20.580;2022-10-31T10:25:45;37.78;;;22.15;;
21758;SDS011;11041;50.854;20.580;2022-10-31T10:28:25;33.70;;;22.10;;
21758;SDS011;11041;50.854;20.580;2022-10-31T10:31:08;36.42;;;21.13;;
21758;SDS011;11041;50.854;20.580;2022-10-31T10:37:12;30.85;;;19.23;;
21758;SDS011;11041;50.854;20.580;2022-10-31T10:39:51;27.40;;;19.30;;
21758;SDS011;11041;50.854;20.580;2022-10-31T10:42:25;34.22;;;18.38;;
21758;SDS011;11041;50.854;20.580;2022-10-31T10:45:18;33.30;;;20.23;;
21758;SDS011;11041;50.854;20.580;2022-10-31T10:48:10;34.97;;;20.60;;
21758;SDS011;11041;50.854;20.580;2022-10-31T10:50:48;28.05;;;18.90;;
21758;SDS011;11041;50.854;20.580;2022-10-31T10:56:31;25.30;;;17.95;;
21758;SDS011;11041;50.854;20.580;2022-10-31T10:59:25;29.58;;;17.77;;
21758;SDS011;11041;50.854;20.580;2022-10-31T11:01:52;26.33;;;17.63;;
21758;SDS011;11041;50.854;20.580;2022-10-31T11:07:05;29.08;;;16.30;;
21758;SDS011;11041;50.854;20.580;2022-10-31T11:09:37;30.85;;;17.58;;
21758;SDS011;11041;50.854;20.580;2022-10-31T11:12:08;29.10;;;17.85;;
21758;SDS011;11041;50.854;20.580;2022-10-31T11:14:58;24.67;;;14.95;;
21758;SDS011;11041;50.854;20.580;2022-10-31T11:17:34;27.90;;;16.13;;
21758;SDS011;11041;50.854;20.580;2022-10-31T11:20:28;23.08;;;15.13;;
21758;SDS011;11041;50.854;20.580;2022-10-31T11:23:00;26.25;;;13.80;;
21758;SDS011;11041;50.854;20.580;2022-10-31T11:25:50;23.60;;;13.77;;
21758;SDS011;11041;50.854;20.580;2022-10-31T11:28:43;24.92;;;15.02;;
21758;SDS011;11041;50.854;20.580;2022-10-31T11:31:25;21.23;;;14.45;;
21758;SDS011;11041;50.854;20.580;2022-10-31T11:34:00;22.17;;;13.73;;
21758;SDS011;11041;50.854;20.580;2022-10-31T11:37:15;22.67;;;13.18;;
21758;SDS011;11041;50.854;20.580;2022-10-31T11:39:56;22.65;;;13.80;;
21758;SDS011;11041;50.854;20.580;2022-10-31T11:42:34;20.60;;;13.90;;
21758;SDS011;11041;50.854;20.580;2022-10-31T11:48:02;21.50;;;14.05;;
21758;SDS011;11041;50.854;20.580;2022-10-31T11:50:47;20.02;;;12.93;;
21758;SDS011;11041;50.854;20.580;2022-10-31T11:53:29;24.23;;;15.05;;
21758;SDS011;11041;50.854;20.580;2022-10-31T11:56:01;22.15;;;12.95;;
21758;SDS011;11041;50.854;20.580;2022-10-31T11:58:39;22.25;;;12.98;;
21758;SDS011;11041;50.854;20.580;2022-10-31T12:01:20;22.90;;;13.75;;
21758;SDS011;11041;50.854;20.580;2022-10-31T12:04:00;21.15;;;14.18;;
21758;SDS011;11041;50.854;20.580;2022-10-31T12:06:39;29.52;;;14.55;;
21758;SDS011;11041;50.854;20.580;2022-10-31T12:14:54;22.65;;;13.85;;
21758;SDS011;11041;50.854;20.580;2022-10-31T12:17:43;24.98;;;13.05;;
21758;SDS011;11041;50.854;20.580;2022-10-31T12:20:40;17.90;;;12.25;;
21758;SDS011;11041;50.854;20.580;2022-10-31T12:23:55;22.98;;;12.50;;
21758;SDS011;11041;50.854;20.580;2022-10-31T12:27:23;24.48;;;12.63;;
21758;SDS011;11041;50.854;20.580;2022-10-31T12:32:49;23.52;;;13.57;;
21758;SDS011;11041;50.854;20.580;2022-10-31T12:35:25;21.58;;;12.57;;
21758;SDS011;11041;50.854;20.580;2022-10-31T12:38:11;19.40;;;13.05;;
21758;SDS011;11041;50.854;20.580;2022-10-31T12:41:14;19.15;;;12.65;;
21758;SDS011;11041;50.854;20.580;2022-10-31T12:56:37;21.45;;;12.90;;
21758;SDS011;11041;50.854;20.580;2022-10-31T12:59:35;22.10;;;12.95;;
21758;SDS011;11041;50.854;20.580;2022-10-31T13:02:18;22.13;;;13.77;;
21758;SDS011;11041;50.854;20.580;2022-10-31T13:05:22;23.38;;;14.23;;
21758;SDS011;11041;50.854;20.580;2022-10-31T13:08:07;26.33;;;14.18;;
21758;SDS011;11041;50.854;20.580;2022-10-31T13:10:47;25.05;;;13.57;;
21758;SDS011;11041;50.854;20.580;2022-10-31T13:30:44;18.98;;;12.68;;
21758;SDS011;11041;50.854;20.580;2022-10-31T13:42:18;17.83;;;10.88;;
21758;SDS011;11041;50.854;20.580;2022-10-31T13:45:17;20.60;;;11.85;;
21758;SDS011;11041;50.854;20.580;2022-10-31T13:50:32;15.30;;;10.57;;
21758;SDS011;11041;50.854;20.580;2022-10-31T13:55:45;14.20;;;10.38;;
21758;SDS011;11041;50.854;20.580;2022-10-31T13:58:27;18.17;;;10.40;;
21758;SDS011;11041;50.854;20.580;2022-10-31T14:00:58;15.15;;;10.68;;
21758;SDS011;11041;50.854;20.580;2022-10-31T14:03:39;17.13;;;10.63;;
21758;SDS011;11041;50.854;20.580;2022-10-31T14:06:09;16.13;;;10.70;;
21758;SDS011;11041;50.854;20.580;2022-10-31T14:08:39;14.27;;;10.65;;
21758;SDS011;11041;50.854;20.580;2022-10-31T14:11:27;22.42;;;10.65;;
21758;SDS011;11041;50.854;20.580;2022-10-31T14:13:55;23.80;;;11.13;;
21758;SDS011;11041;50.854;20.580;2022-10-31T14:16:25;15.73;;;11.27;;
21758;SDS011;11041;50.854;20.580;2022-10-31T14:19:00;19.48;;;11.63;;
21758;SDS011;11041;50.854;20.580;2022-10-31T14:21:37;20.15;;;13.00;;
21758;SDS011;11041;50.854;20.580;2022-10-31T14:24:41;16.98;;;11.95;;
21758;SDS011;11041;50.854;20.580;2022-10-31T14:29:53;21.80;;;11.68;;
21758;SDS011;11041;50.854;20.580;2022-10-31T14:32:24;19.02;;;12.50;;
21758;SDS011;11041;50.854;20.580;2022-10-31T14:34:53;22.02;;;12.18;;
21758;SDS011;11041;50.854;20.580;2022-10-31T14:47:23;30.08;;;20.40;;
21758;SDS011;11041;50.854;20.580;2022-10-31T14:50:12;29.83;;;20.45;;
21758;SDS011;11041;50.854;20.580;2022-10-31T14:53:09;24.05;;;18.00;;
21758;SDS011;11041;50.854;20.580;2022-10-31T14:56:11;20.88;;;15.32;;
21758;SDS011;11041;50.854;20.580;2022-10-31T14:58:45;27.25;;;16.42;;
21758;SDS011;11041;50.854;20.580;2022-10-31T15:09:58;21.13;;;12.15;;
21758;SDS011;11041;50.854;20.580;2022-10-31T15:12:29;24.90;;;13.90;;
21758;SDS011;11041;50.854;20.580;2022-10-31T15:17:56;22.98;;;14.75;;
21758;SDS011;11041;50.854;20.580;2022-10-31T15:20:26;27.02;;;17.45;;
21758;SDS011;11041;50.854;20.580;2022-10-31T15:22:59;30.05;;;16.80;;
21758;SDS011;11041;50.854;20.580;2022-10-31T15:25:27;22.20;;;15.43;;
21758;SDS011;11041;50.854;20.580;2022-10-31T15:28:00;26.30;;;15.10;;
21758;SDS011;11041;50.854;20.580;2022-10-31T15:30:38;23.48;;;16.75;;
21758;SDS011;11041;50.854;20.580;2022-10-31T15:36:00;25.92;;;18.92;;
21758;SDS011;11041;50.854;20.580;2022-10-31T15:38:28;28.90;;;17.05;;
21758;SDS011;11041;50.854;20.580;2022-10-31T15:43:32;29.92;;;15.57;;
21758;SDS011;11041;50.854;20.580;2022-10-31T15:46:06;31.75;;;24.25;;
21758;SDS011;11041;50.854;20.580;2022-10-31T15:48:35;26.20;;;17.23;;
21758;SDS011;11041;50.854;20.580;2022-10-31T15:51:03;28.90;;;19.05;;
21758;SDS011;11041;50.854;20.580;2022-10-31T15:56:24;36.80;;;21.75;;
21758;SDS011;11041;50.854;20.580;2022-10-31T15:58:57;36.80;;;22.45;;
21758;SDS011;11041;50.854;20.580;2022-10-31T16:01:27;35.83;;;21.85;;
21758;SDS011;11041;50.854;20.580;2022-10-31T16:04:03;32.15;;;21.58;;
21758;SDS011;11041;50.854;20.580;2022-10-31T16:06:36;32.47;;;22.05;;
21758;SDS011;11041;50.854;20.580;2022-10-31T16:09:03;31.85;;;20.83;;
21758;SDS011;11041;50.854;20.580;2022-10-31T16:11:49;27.75;;;18.15;;
21758;SDS011;11041;50.854;20.580;2022-10-31T16:14:17;26.08;;;16.95;;
21758;SDS011;11041;50.854;20.580;2022-10-31T16:16:50;33.20;;;18.90;;
21758;SDS011;11041;50.854;20.580;2022-10-31T16:19:21;28.17;;;17.10;;
21758;SDS011;11041;50.854;20.580;2022-10-31T16:22:13;26.52;;;17.35;;
21758;SDS011;11041;50.854;20.580;2022-10-31T16:25:04;30.00;;;17.98;;
21758;SDS011;11041;50.854;20.580;2022-10-31T16:27:39;25.63;;;15.35;;
21758;SDS011;11041;50.854;20.580;2022-10-31T16:32:58;26.30;;;15.45;;
21758;SDS011;11041;50.854;20.580;2022-10-31T16:35:28;28.83;;;18.10;;
21758;SDS011;11041;50.854;20.580;2022-10-31T16:38:04;31.88;;;18.58;;
21758;SDS011;11041;50.854;20.580;2022-10-31T16:40:35;34.35;;;18.50;;
21758;SDS011;11041;50.854;20.580;2022-10-31T16:43:04;37.65;;;21.73;;
21758;SDS011;11041;50.854;20.580;2022-10-31T16:45:34;32.83;;;19.27;;
21758;SDS011;11041;50.854;20.580;2022-10-31T16:48:10;46.70;;;23.83;;
21758;SDS011;11041;50.854;20.580;2022-10-31T16:50:42;34.10;;;17.75;;
21758;SDS011;11041;50.854;20.580;2022-10-31T16:53:09;51.25;;;24.65;;
21758;SDS011;11041;50.854;20.580;2022-10-31T16:55:41;37.08;;;22.52;;
21758;SDS011;11041;50.854;20.580;2022-10-31T16:58:19;34.05;;;20.90;;
21758;SDS011;11041;50.854;20.580;2022-10-31T17:00:56;34.50;;;20.80;;
21758;SDS011;11041;50.854;20.580;2022-10-31T17:03:23;32.92;;;18.02;;
21758;SDS011;11041;50.854;20.580;2022-10-31T17:05:50;24.65;;;16.17;;
21758;SDS011;11041;50.854;20.580;2022-10-31T17:08:17;24.60;;;16.38;;
21758;SDS011;11041;50.854;20.580;2022-10-31T17:10:43;27.50;;;17.48;;